Nearby METAR Reports

 

KFIN - Palm Coast, Florida, USA
Distance from station: ENE 9mi, 15km
Updated: Sun, 21-Apr-2019 2:35am EDT
Clear
Clear
 Wind from calm
Wind: Calm
Temperature: 52°F , 11°C
Dew Point: 48°F , 9°C
Humidity: 88%
Barometer: 30.03 inHg , 1016.9 hPa
Clouds: Clear
Visibility: 10 miles , 16 km
2019/04/21 06:35 KFIN 210635Z AUTO 00000KT 10SM CLR 11/09 A3003 RMK AO2 T01060093
KOMN - Ormond Beach Vor, Florida, USA
Distance from station: ESE 17mi, 27km
Updated: Sat, 20-Apr-2019 6:50pm EDT
NOT Current
Clear
Clear
 Wind from WSW
Wind: WSW 14 mph , 22 km/h, Gust: 21 mph , 33 km/h
Temperature: 68°F , 20°C
Dew Point: 41°F , 5°C
Humidity: 38%
Barometer: 29.94 inHg , 1013.9 hPa
Clouds: Clear
Visibility: 10 miles , 16 km
2019/04/20 22:50 KOMN 202250Z 25012G18KT 10SM CLR 20/05 A2994 RMK LAST
 
KDAB - Daytona Beach, Florida, USA
Distance from station: SE 24mi, 39km
Updated: Sun, 21-Apr-2019 1:53am EDT
Mostly cloudy
Mostly cloudy
 Wind from SSW
Wind: SSW 3 mph , 6 km/h
Temperature: 59°F , 15°C
Dew Point: 52°F , 11°C
Humidity: 77%
Barometer: 30.05 inHg , 1017.6 hPa
Clouds: Mostly cloudy
Visibility: 10 miles , 16 km
Cloud details: Partly cloudy 5500 ft
Mostly cloudy 7500 ft
2019/04/21 05:53 KDAB 210553Z 20003KT 10SM SCT055 BKN075 15/11 A3005 RMK AO2 SLP173 T01500111 10183 20133 50006 $
KDED - Deland, Florida, USA
Distance from station: S 26mi, 41km
Updated: Sun, 21-Apr-2019 2:35am EDT
Clear
Clear
 Wind from calm
Wind: Calm
Temperature: 57°F , 14°C
Dew Point: 50°F , 10°C
Humidity: 77%
Barometer: 30.04 inHg , 1017.3 hPa
Clouds: Clear
Visibility: 10 miles , 16 km
2019/04/21 06:35 KDED 210635Z AUTO 00000KT 10SM CLR 14/10 A3004 RMK AO2
 
KEVB - New Smyrna Beach, Florida, USA
Distance from station: SE 36mi, 58km
Updated: Sat, 20-Apr-2019 9:48pm EDT
NOT Current
Clear
Clear
 Wind from calm
Wind: Calm
Temperature: 59°F , 15°C
Dew Point: 45°F , 7°C
Humidity: 59%
Barometer: 30.03 inHg , 1016.9 hPa
Clouds: Clear
Visibility: 10 miles , 16 km
2019/04/21 01:48 KEVB 210148Z 00000KT 10SM CLR 15/07 A3003 RMK LAST
KSGJ - St Augustine, Florida, USA
Distance from station: N 37mi, 60km
Updated: Sun, 21-Apr-2019 1:56am EDT
Clear
Clear
 Wind from SW
Wind: SW 6 mph , 9 km/h
Temperature: 55°F , 13°C
Dew Point: 50°F , 10°C
Humidity: 82%
Barometer: 30.03 inHg , 1016.9 hPa
Clouds: Clear
Visibility: 10 miles , 16 km
2019/04/21 05:56 KSGJ 210556Z AUTO 23005KT 10SM CLR 13/10 A3003 RMK AO2 SLP168 T01330100 10178 20133 50001
 
KSFB - Sanford/Orlando, Florida, USA
Distance from station: S 47mi, 75km
Updated: Sun, 21-Apr-2019 1:53am EDT
Partly cloudy
Partly cloudy
 Wind from WSW
Wind: WSW 3 mph , 6 km/h
Temperature: 61°F , 16°C
Dew Point: 52°F , 11°C
Humidity: 72%
Barometer: 30.05 inHg , 1017.6 hPa
Clouds: Partly cloudy
Visibility: 10 miles , 16 km
Cloud details: Partly cloudy 6000 ft
2019/04/21 05:53 KSFB 210553Z AUTO 25003KT 10SM SCT060 16/11 A3005 RMK AO2 SLP173 T01560106 10189 20150 50005
KVVG - The Villages, Florida, USA
Distance from station: SW 50mi, 80km
Updated: Wed, 14-Feb-2018 2:10pm EST
NOT Current

 Wind from calm
Wind: Calm
Temperature: 73°F , 23°C
Dew Point: 66°F , 19°C
Humidity: 78%
Barometer: 30.29 inHg , 1025.7 hPa
Visibility: 10 miles , 16 km
2018/02/14 19:10 KVVG 141910Z AUTO 00000KT 10SM 23/19 A3029 RMK A01